Terminal Aerodrome Forecast
Issued by NWS Flagstaff, AZ

Home | Current Version | Previous Version | Text Only | Print | Product List | Glossary On
Versions: 1 2 3 4 5 6 7 8 9 10 11 12 13 14 15
177
FTUS45 KFGZ 111133
TAFINW
TAF
KINW 111133Z 1112/1212 23010G20KT P6SM SCT100 BKN150 OVC200
     FM111500 VRB06KT P6SM FEW050 SCT150 BKN200=

USA.gov is the U.S. government's official web portal to all federal, state and local government web resources and services.